createdAt,value
2017-09-27T00:00:47.440Z,102257.66
2017-09-27T00:03:15.057Z,102267.81
2017-09-27T00:05:42.699Z,102258.69
2017-09-27T00:08:10.322Z,102264.70
2017-09-27T00:10:37.909Z,102261.12
2017-09-27T00:13:05.557Z,102250.27
2017-09-27T00:15:33.158Z,102260.02
2017-09-27T00:18:00.762Z,102258.52
2017-09-27T00:20:29.830Z,102252.30
2017-09-27T00:22:57.640Z,102239.45
2017-09-27T00:25:25.244Z,102236.17
2017-09-27T00:27:52.963Z,102237.10
2017-09-27T00:30:20.616Z,102237.37
2017-09-27T00:32:48.366Z,102239.47
2017-09-27T00:35:16.030Z,102246.45
2017-09-27T00:37:43.628Z,102249.48
2017-09-27T00:40:11.252Z,102245.01
2017-09-27T00:42:38.921Z,102241.22
2017-09-27T00:45:06.526Z,102236.89
2017-09-27T00:47:34.191Z,102234.79
2017-09-27T00:50:01.797Z,102235.98
2017-09-27T00:52:29.387Z,102237.65
2017-09-27T00:54:57.003Z,102234.22
2017-09-27T00:57:24.608Z,102224.22
2017-09-27T00:59:52.253Z,102236.96
2017-09-27T01:02:19.880Z,102235.30
2017-09-27T01:04:47.512Z,102236.13
2017-09-27T01:07:15.464Z,102241.09
2017-09-27T01:09:43.072Z,102242.19
2017-09-27T01:12:10.726Z,102239.00
2017-09-27T01:14:38.316Z,102238.81
2017-09-27T01:17:05.929Z,102241.00
2017-09-27T01:19:33.554Z,102248.14
2017-09-27T01:22:01.163Z,102252.11
2017-09-27T01:24:28.796Z,102251.75
2017-09-27T01:26:56.668Z,102252.78
2017-09-27T01:29:24.287Z,102253.93
2017-09-27T01:31:51.950Z,102251.17
2017-09-27T01:34:19.552Z,102254.61
2017-09-27T01:36:47.531Z,102250.23
2017-09-27T01:39:15.396Z,102248.05
2017-09-27T01:41:43.002Z,102246.13
2017-09-27T01:44:10.623Z,102245.96
2017-09-27T01:46:38.235Z,102246.63
2017-09-27T01:49:05.957Z,102244.28
2017-09-27T01:51:33.600Z,102242.11
2017-09-27T01:54:01.215Z,102240.07
2017-09-27T01:56:28.863Z,102237.31
2017-09-27T01:58:56.470Z,102233.78
2017-09-27T02:01:24.130Z,102225.78
2017-09-27T02:03:51.748Z,102227.48
2017-09-27T02:06:19.333Z,102226.87
2017-09-27T02:08:46.952Z,102224.37
2017-09-27T02:11:14.552Z,102230.49
2017-09-27T02:13:42.204Z,102226.14
2017-09-27T02:16:09.811Z,102220.41
2017-09-27T02:18:37.413Z,102214.70
2017-09-27T02:21:05.050Z,102216.05
2017-09-27T02:23:32.754Z,102225.88
2017-09-27T02:26:00.395Z,102222.28
2017-09-27T02:28:27.995Z,102222.20
2017-09-27T02:30:55.608Z,102229.83
2017-09-27T02:33:23.256Z,102223.70
2017-09-27T02:35:50.855Z,102226.81
2017-09-27T02:38:18.503Z,102228.33
2017-09-27T02:40:46.104Z,102229.27
2017-09-27T02:43:13.695Z,102230.27
2017-09-27T02:45:41.320Z,102222.53
2017-09-27T02:48:08.948Z,102226.81
2017-09-27T02:50:36.603Z,102219.91
2017-09-27T02:53:04.198Z,102224.46
2017-09-27T02:55:31.789Z,102221.67
2017-09-27T02:57:59.415Z,102226.06
2017-09-27T03:00:27.012Z,102219.50
2017-09-27T03:02:54.644Z,102217.41
2017-09-27T03:05:22.602Z,102216.87
2017-09-27T03:07:50.221Z,102213.05
2017-09-27T03:10:17.833Z,102212.37
2017-09-27T03:12:45.436Z,102210.60
2017-09-27T03:15:13.052Z,102214.63
2017-09-27T03:17:40.662Z,102221.35
2017-09-27T03:20:08.249Z,102221.19
2017-09-27T03:22:35.906Z,102212.20
2017-09-27T03:25:03.500Z,102208.67
2017-09-27T03:27:31.161Z,102211.61
2017-09-27T03:29:58.765Z,102211.59
2017-09-27T03:32:26.352Z,102208.66
2017-09-27T03:34:53.978Z,102208.12
2017-09-27T03:37:21.571Z,102210.65
2017-09-27T03:39:49.212Z,102211.26
2017-09-27T03:42:16.817Z,102209.59
2017-09-27T03:44:44.424Z,102206.39
2017-09-27T03:47:12.048Z,102216.45
2017-09-27T03:49:39.688Z,102214.27
2017-09-27T03:52:07.360Z,102217.53
2017-09-27T03:54:34.982Z,102216.80
2017-09-27T03:57:02.555Z,102221.98
2017-09-27T03:59:30.180Z,102218.23
2017-09-27T04:01:57.812Z,102222.77
2017-09-27T04:04:25.443Z,102223.18
2017-09-27T04:06:53.052Z,102229.00
2017-09-27T04:09:20.643Z,102225.53
2017-09-27T04:11:48.254Z,102230.92
2017-09-27T04:14:15.854Z,102231.45
2017-09-27T04:16:43.484Z,102231.45
2017-09-27T04:19:11.107Z,102226.81
2017-09-27T04:21:39.018Z,102222.12
2017-09-27T04:24:06.682Z,102228.67
2017-09-27T04:26:34.548Z,102227.22
2017-09-27T04:29:02.187Z,102218.73
2017-09-27T04:31:29.783Z,102226.16
2017-09-27T04:33:57.401Z,102225.66
2017-09-27T04:36:25.050Z,102224.20
2017-09-27T04:38:52.635Z,102224.64
2017-09-27T04:41:20.289Z,102221.78
2017-09-27T04:43:47.885Z,102223.53
2017-09-27T04:46:15.487Z,102231.33
2017-09-27T04:48:43.120Z,102230.17
2017-09-27T04:51:10.716Z,102230.59
2017-09-27T04:53:38.353Z,102234.11
2017-09-27T04:56:05.941Z,102242.52
2017-09-27T04:58:33.550Z,102234.36
2017-09-27T05:01:01.181Z,102230.95
2017-09-27T05:03:28.775Z,102234.11
2017-09-27T05:05:56.408Z,102237.73
2017-09-27T05:08:24.012Z,102235.72
2017-09-27T05:10:51.965Z,102238.14
2017-09-27T05:13:19.937Z,102238.74
2017-09-27T05:15:47.559Z,102244.09
2017-09-27T05:18:15.188Z,102240.65
2017-09-27T05:20:42.783Z,102245.69
2017-09-27T05:23:10.366Z,102247.23
2017-09-27T05:25:37.983Z,102250.34
2017-09-27T05:28:05.587Z,102256.95
2017-09-27T05:30:33.272Z,102251.76
2017-09-27T05:33:00.869Z,102249.79
2017-09-27T05:35:28.464Z,102257.35
2017-09-27T05:37:56.090Z,102249.38
2017-09-27T05:40:24.027Z,102255.45
2017-09-27T05:42:51.665Z,102257.30
2017-09-27T05:45:19.248Z,102257.30
2017-09-27T05:47:46.843Z,102253.75
2017-09-27T05:50:14.472Z,102254.34
2017-09-27T05:52:42.069Z,102258.70
2017-09-27T05:55:09.707Z,102258.89
2017-09-27T05:57:37.357Z,102259.78
2017-09-27T06:00:04.977Z,102257.69
2017-09-27T06:02:32.627Z,102255.58
2017-09-27T06:05:00.232Z,102258.52
2017-09-27T06:07:27.918Z,102262.64
2017-09-27T06:09:55.524Z,102264.16
2017-09-27T06:12:23.435Z,102256.75
2017-09-27T06:14:51.057Z,102267.42
2017-09-27T06:17:18.663Z,102273.81
2017-09-27T06:19:46.318Z,102273.81
2017-09-27T06:22:13.923Z,102269.58
2017-09-27T06:24:41.504Z,102271.79
2017-09-27T06:27:09.128Z,102272.02
2017-09-27T06:29:37.080Z,102271.61
2017-09-27T06:32:04.744Z,102276.56
2017-09-27T06:34:32.341Z,102278.99
2017-09-27T06:37:00.275Z,102278.66
2017-09-27T06:39:27.909Z,102278.92
2017-09-27T06:41:55.512Z,102275.05
2017-09-27T06:44:23.165Z,102278.15
2017-09-27T06:46:50.792Z,102280.41
2017-09-27T06:49:18.387Z,102277.14
2017-09-27T06:51:46.000Z,102281.66
2017-09-27T06:54:13.683Z,102284.20
2017-09-27T06:56:41.297Z,102277.20
2017-09-27T06:59:09.241Z,102277.95
2017-09-27T07:01:36.828Z,102281.34
2017-09-27T07:04:04.428Z,102286.97
2017-09-27T07:06:32.128Z,102284.85
2017-09-27T07:08:59.730Z,102282.22
2017-09-27T07:11:27.369Z,102283.38
2017-09-27T07:13:55.232Z,102277.94
2017-09-27T07:16:22.817Z,102280.80
2017-09-27T07:18:50.459Z,102281.89
2017-09-27T07:21:18.057Z,102275.81
2017-09-27T07:23:46.414Z,102271.61
2017-09-27T07:26:14.015Z,102274.47
2017-09-27T07:28:41.620Z,102268.41
2017-09-27T07:31:09.264Z,102268.84
2017-09-27T07:33:37.148Z,102280.22
2017-09-27T07:36:04.804Z,102282.38
2017-09-27T07:38:32.398Z,102287.53
2017-09-27T07:41:00.039Z,102287.28
2017-09-27T07:43:27.690Z,102292.88
2017-09-27T07:45:55.293Z,102288.01
2017-09-27T07:48:22.940Z,102292.44
2017-09-27T07:50:50.891Z,102288.57
2017-09-27T07:53:18.505Z,102283.91
2017-09-27T07:55:47.474Z,102289.97
2017-09-27T07:58:15.105Z,102288.00
2017-09-27T08:00:42.771Z,102292.46
2017-09-27T08:03:10.372Z,102285.95
2017-09-27T08:05:37.982Z,102281.07
2017-09-27T08:08:05.608Z,102281.48
2017-09-27T08:10:33.216Z,102279.86
2017-09-27T08:13:00.873Z,102281.70
2017-09-27T08:15:28.499Z,102282.30
2017-09-27T08:17:56.100Z,102290.84
2017-09-27T08:20:24.074Z,102286.25
2017-09-27T08:22:51.678Z,102280.86
2017-09-27T08:25:19.390Z,102283.81
2017-09-27T08:27:46.990Z,102280.78
2017-09-27T08:30:14.600Z,102281.71
2017-09-27T08:32:42.230Z,102283.27
2017-09-27T08:35:09.875Z,102282.17
2017-09-27T08:37:37.504Z,102278.14
2017-09-27T08:40:05.122Z,102282.59
2017-09-27T08:42:32.709Z,102278.72
2017-09-27T08:45:00.355Z,102283.90
2017-09-27T08:47:27.957Z,102274.89
2017-09-27T08:49:55.594Z,102278.59
2017-09-27T08:52:23.213Z,102276.41
2017-09-27T08:54:50.820Z,102279.06
2017-09-27T08:57:18.708Z,102278.02
2017-09-27T08:59:46.306Z,102275.73
2017-09-27T09:02:14.241Z,102265.89
2017-09-27T09:04:41.846Z,102267.44
2017-09-27T09:07:09.436Z,102272.14
2017-09-27T09:09:37.341Z,102270.32
2017-09-27T09:12:04.940Z,102269.25
2017-09-27T09:14:32.609Z,102269.12
2017-09-27T09:17:00.525Z,102265.48
2017-09-27T09:19:28.132Z,102262.10
2017-09-27T09:21:55.772Z,102260.86
2017-09-27T09:24:23.359Z,102263.97
2017-09-27T09:26:51.343Z,102258.61
2017-09-27T09:29:19.763Z,102263.00
2017-09-27T09:31:47.367Z,102264.56
2017-09-27T09:34:15.402Z,102266.39
2017-09-27T09:36:42.993Z,102258.83
2017-09-27T09:39:10.688Z,102261.38
2017-09-27T09:41:38.293Z,102254.38
2017-09-27T09:44:05.900Z,102256.73
2017-09-27T09:46:33.540Z,102257.57
2017-09-27T09:49:01.142Z,102256.17
2017-09-27T09:51:28.788Z,102248.84
2017-09-27T09:53:56.398Z,102249.44
2017-09-27T09:56:24.010Z,102249.97
2017-09-27T09:58:51.925Z,102253.08
2017-09-27T10:01:19.519Z,102248.39
2017-09-27T10:03:48.739Z,102250.58
2017-09-27T10:06:16.480Z,102257.48
2017-09-27T10:08:44.138Z,102255.80
2017-09-27T10:11:11.759Z,102246.86
2017-09-27T10:13:39.363Z,102244.34
2017-09-27T10:16:07.001Z,102246.72
2017-09-27T10:18:34.603Z,102237.24
2017-09-27T10:21:02.529Z,102241.22
2017-09-27T10:23:30.155Z,102240.47
2017-09-27T10:25:57.746Z,102237.37
2017-09-27T10:28:25.383Z,102236.55
2017-09-27T10:30:52.980Z,102235.64
2017-09-27T10:33:20.582Z,102242.43
2017-09-27T10:35:48.201Z,102240.77
2017-09-27T10:38:15.853Z,102239.91
2017-09-27T10:40:44.021Z,102236.28
2017-09-27T10:43:13.051Z,102239.55
2017-09-27T10:45:40.816Z,102234.02
2017-09-27T10:48:08.425Z,102233.13
2017-09-27T10:50:36.456Z,102230.66
2017-09-27T10:53:06.070Z,102231.83
2017-09-27T10:55:33.929Z,102233.13
2017-09-27T10:58:01.714Z,102230.11
2017-09-27T11:00:31.169Z,102225.55
2017-09-27T11:02:59.307Z,102227.06
2017-09-27T11:05:28.569Z,102223.59
2017-09-27T11:07:56.733Z,102221.42
2017-09-27T11:10:24.330Z,102210.57
2017-09-27T11:12:52.789Z,102215.27
2017-09-27T11:15:20.395Z,102209.17
2017-09-27T11:17:48.300Z,102209.22
2017-09-27T11:20:15.903Z,102199.73
2017-09-27T11:22:43.519Z,102201.36
2017-09-27T11:25:11.155Z,102203.31
2017-09-27T11:27:38.749Z,102205.11
2017-09-27T11:30:06.376Z,102201.84
2017-09-27T11:32:33.988Z,102200.81
2017-09-27T11:35:01.851Z,102195.82
2017-09-27T11:37:29.718Z,102193.53
2017-09-27T11:39:57.604Z,102193.50
2017-09-27T11:42:25.246Z,102197.05
2017-09-27T11:44:52.826Z,102189.25
2017-09-27T11:47:20.551Z,102189.25
2017-09-27T11:49:48.449Z,102186.59
2017-09-27T11:52:16.053Z,102187.81
2017-09-27T11:54:43.775Z,102190.55
2017-09-27T11:57:11.769Z,102182.30
2017-09-27T11:59:39.708Z,102185.20
2017-09-27T12:02:07.781Z,102181.88
2017-09-27T12:04:35.415Z,102178.04
2017-09-27T12:07:03.054Z,102174.97
2017-09-27T12:09:30.667Z,102175.03
2017-09-27T12:11:58.259Z,102176.13
2017-09-27T12:14:25.886Z,102178.12
2017-09-27T12:16:53.484Z,102177.41
2017-09-27T12:19:21.142Z,102169.10
2017-09-27T12:21:48.744Z,102163.20
2017-09-27T12:24:16.440Z,102162.70
2017-09-27T12:26:44.056Z,102165.53
2017-09-27T12:29:11.665Z,102166.02
2017-09-27T12:31:40.665Z,102162.98
2017-09-27T12:34:08.284Z,102160.50
2017-09-27T12:36:36.290Z,102157.48
2017-09-27T12:39:03.949Z,102161.72
2017-09-27T12:41:31.584Z,102154.02
2017-09-27T12:43:59.221Z,102151.53
2017-09-27T12:46:27.250Z,102156.01
2017-09-27T12:48:54.958Z,102154.96
2017-09-27T12:51:22.877Z,102152.33
2017-09-27T12:53:50.525Z,102152.72
2017-09-27T12:56:18.154Z,102153.87
2017-09-27T12:58:45.774Z,102154.80
2017-09-27T13:01:13.418Z,102157.28
2017-09-27T13:03:41.053Z,102154.77
2017-09-27T13:06:08.656Z,102159.41
2017-09-27T13:08:36.295Z,102156.16
2017-09-27T13:11:03.896Z,102157.53
2017-09-27T13:13:31.520Z,102160.47
2017-09-27T13:15:59.177Z,102164.59
2017-09-27T13:18:27.069Z,102168.11
2017-09-27T13:20:54.704Z,102158.25
2017-09-27T13:23:22.331Z,102158.70
2017-09-27T13:25:50.293Z,102158.94
2017-09-27T13:28:17.912Z,102157.53
2017-09-27T13:30:45.518Z,102157.98
2017-09-27T13:33:13.291Z,102152.12
2017-09-27T13:35:40.885Z,102155.81
2017-09-27T13:38:08.477Z,102150.74
2017-09-27T13:40:36.104Z,102151.28
2017-09-27T13:43:03.686Z,102156.59
2017-09-27T13:45:31.346Z,102151.59
2017-09-27T13:47:59.228Z,102157.75
2017-09-27T13:50:26.837Z,102159.42
2017-09-27T13:52:54.488Z,102155.78
2017-09-27T13:55:22.071Z,102153.91
2017-09-27T13:57:50.348Z,102159.83
2017-09-27T14:00:18.263Z,102158.99
2017-09-27T14:02:46.145Z,102155.11
2017-09-27T14:05:13.766Z,102150.86
2017-09-27T14:07:41.665Z,102154.70
2017-09-27T14:10:09.297Z,102152.69
2017-09-27T14:12:36.902Z,102151.17
2017-09-27T14:15:04.485Z,102158.42
2017-09-27T14:17:32.108Z,102155.59
2017-09-27T14:19:59.704Z,102161.84
2017-09-27T14:22:27.350Z,102158.84
2017-09-27T14:24:54.942Z,102155.45
2017-09-27T14:27:22.540Z,102160.55
2017-09-27T14:29:50.163Z,102158.36
2017-09-27T14:32:18.106Z,102157.20
2017-09-27T14:34:45.708Z,102163.67
2017-09-27T14:37:13.616Z,102155.52
2017-09-27T14:39:41.207Z,102159.27
2017-09-27T14:42:08.818Z,102153.95
2017-09-27T14:44:36.468Z,102156.95
2017-09-27T14:47:04.070Z,102150.73
2017-09-27T14:49:31.669Z,102148.73
2017-09-27T14:51:59.292Z,102148.73
2017-09-27T14:54:26.882Z,102144.77
2017-09-27T14:56:54.534Z,102148.92
2017-09-27T14:59:22.141Z,102150.38
2017-09-27T15:01:49.749Z,102146.41
2017-09-27T15:04:17.386Z,102150.38
2017-09-27T15:06:44.989Z,102148.89
2017-09-27T15:09:12.631Z,102148.59
2017-09-27T15:11:40.235Z,102141.74
2017-09-27T15:14:07.833Z,102139.42
2017-09-27T15:16:35.493Z,102137.72
2017-09-27T15:19:03.080Z,102136.74
2017-09-27T15:21:30.762Z,102138.25
2017-09-27T15:23:58.349Z,102138.89
2017-09-27T15:26:26.270Z,102138.16
2017-09-27T15:28:53.895Z,102137.41
2017-09-27T15:31:21.497Z,102143.28
2017-09-27T15:33:49.169Z,102135.20
2017-09-27T15:36:16.754Z,102143.73
2017-09-27T15:38:44.682Z,102140.09
2017-09-27T15:41:12.295Z,102142.31
2017-09-27T15:43:39.900Z,102138.97
2017-09-27T15:46:07.532Z,102143.25
2017-09-27T15:48:35.125Z,102140.42
2017-09-27T15:51:02.750Z,102146.95
2017-09-27T15:53:30.372Z,102146.86
2017-09-27T15:55:57.954Z,102147.69
2017-09-27T15:58:25.593Z,102147.02
2017-09-27T16:00:53.177Z,102149.10
2017-09-27T16:03:21.025Z,102154.89
2017-09-27T16:05:48.662Z,102151.25
2017-09-27T16:08:16.546Z,102158.44
2017-09-27T16:10:44.183Z,102154.24
2017-09-27T16:13:11.774Z,102147.55
2017-09-27T16:15:39.378Z,102154.43
2017-09-27T16:18:07.302Z,102154.34
2017-09-27T16:20:34.954Z,102150.81
2017-09-27T16:23:02.587Z,102148.72
2017-09-27T16:25:30.197Z,102151.52
2017-09-27T16:27:57.809Z,102162.52
2017-09-27T16:30:25.431Z,102156.13
2017-09-27T16:32:53.373Z,102166.98
2017-09-27T16:35:21.342Z,102164.89
2017-09-27T16:37:48.943Z,102164.78
2017-09-27T16:40:16.546Z,102171.50
2017-09-27T16:42:44.172Z,102174.70
2017-09-27T16:45:12.109Z,102169.20
2017-09-27T16:47:39.753Z,102169.81
2017-09-27T16:50:07.333Z,102171.91
2017-09-27T16:52:34.927Z,102171.70
2017-09-27T16:55:02.859Z,102169.61
2017-09-27T17:00:04.225Z,102166.44
2017-09-27T17:02:31.812Z,102168.43
2017-09-27T17:04:59.413Z,102165.69
2017-09-27T17:07:27.042Z,102168.39
2017-09-27T17:09:54.636Z,102169.39
2017-09-27T17:12:22.290Z,102175.15
2017-09-27T17:14:49.880Z,102178.78
2017-09-27T17:17:17.455Z,102176.36
2017-09-27T17:19:45.100Z,102173.14
2017-09-27T17:22:12.728Z,102174.36
2017-09-27T17:24:40.349Z,102166.86
2017-09-27T17:27:07.982Z,102173.70
2017-09-27T17:29:35.593Z,102175.28
2017-09-27T17:32:03.533Z,102169.67
2017-09-27T17:34:31.403Z,102168.72
2017-09-27T17:36:59.049Z,102173.10
2017-09-27T17:39:26.670Z,102174.00
2017-09-27T17:41:54.285Z,102172.54
2017-09-27T17:44:21.936Z,102178.78
2017-09-27T17:46:49.531Z,102179.63
2017-09-27T17:49:17.487Z,102178.85
2017-09-27T17:51:45.118Z,102178.33
2017-09-27T17:54:13.035Z,102179.81
2017-09-27T17:56:41.565Z,102183.45
2017-09-27T17:59:09.166Z,102181.59
2017-09-27T18:01:37.125Z,102180.52
2017-09-27T18:04:07.604Z,102184.88
2017-09-27T18:06:40.893Z,102185.50
2017-09-27T18:09:17.077Z,102183.94
2017-09-27T18:11:50.181Z,102183.22
2017-09-27T18:14:23.391Z,102183.37
2017-09-27T18:16:55.626Z,102182.02
2017-09-27T18:19:23.241Z,102185.56
2017-09-27T18:21:50.843Z,102183.02
2017-09-27T18:24:18.564Z,102187.58
2017-09-27T18:26:46.185Z,102189.02
2017-09-27T18:29:13.818Z,102193.25
2017-09-27T18:31:41.429Z,102190.28
2017-09-27T18:34:09.054Z,102194.00
2017-09-27T18:36:36.684Z,102193.02
2017-09-27T18:39:04.285Z,102200.08
2017-09-27T18:41:31.935Z,102198.07
2017-09-27T18:44:02.900Z,102191.62
2017-09-27T18:46:30.877Z,102200.77
2017-09-27T18:48:58.514Z,102195.26
2017-09-27T18:51:26.104Z,102199.91
2017-09-27T18:53:53.999Z,102197.05
2017-09-27T18:56:21.967Z,102197.23
2017-09-27T18:58:49.566Z,102202.60
2017-09-27T19:01:17.192Z,102207.91
2017-09-27T19:03:44.789Z,102206.05
2017-09-27T19:06:12.446Z,102209.17
2017-09-27T19:08:40.068Z,102201.70
2017-09-27T19:11:07.681Z,102206.47
2017-09-27T19:13:35.344Z,102201.77
2017-09-27T19:16:03.016Z,102209.20
2017-09-27T19:18:30.693Z,102206.26
2017-09-27T19:20:58.709Z,102210.70
2017-09-27T19:23:26.298Z,102206.50
2017-09-27T19:25:53.987Z,102209.80
2017-09-27T19:28:21.695Z,102209.02
2017-09-27T19:30:49.329Z,102205.06
2017-09-27T19:33:16.924Z,102209.76
2017-09-27T19:35:44.518Z,102210.95
2017-09-27T19:38:12.154Z,102214.46
2017-09-27T19:40:40.010Z,102212.06
2017-09-27T19:43:07.672Z,102218.03
2017-09-27T19:45:35.644Z,102206.67
2017-09-27T19:48:03.262Z,102204.19
2017-09-27T19:50:30.887Z,102206.25
2017-09-27T19:52:58.508Z,102204.72
2017-09-27T19:55:26.172Z,102202.12
2017-09-27T19:57:53.769Z,102198.41
2017-09-27T20:00:21.730Z,102199.42
2017-09-27T20:02:49.390Z,102199.75
2017-09-27T20:05:17.016Z,102201.52
2017-09-27T20:07:44.704Z,102200.67
2017-09-27T20:10:12.313Z,102197.95
2017-09-27T20:12:39.926Z,102199.80
2017-09-27T20:15:07.557Z,102194.27
2017-09-27T20:17:35.158Z,102189.19
2017-09-27T20:20:02.804Z,102190.39
2017-09-27T20:22:30.694Z,102189.84
2017-09-27T20:24:58.358Z,102187.50
2017-09-27T20:27:25.999Z,102185.56
2017-09-27T20:29:53.645Z,102188.44
2017-09-27T20:32:21.274Z,102186.33
2017-09-27T20:34:48.914Z,102191.31
2017-09-27T20:37:16.513Z,102189.19
2017-09-27T20:39:44.154Z,102192.30
2017-09-27T20:42:11.796Z,102188.02
2017-09-27T20:44:39.652Z,102194.21
2017-09-27T20:47:07.260Z,102186.00
2017-09-27T20:49:34.873Z,102186.90
2017-09-27T20:52:02.497Z,102192.62
2017-09-27T20:54:30.115Z,102189.77
2017-09-27T20:56:57.964Z,102186.98
2017-09-27T20:59:25.936Z,102186.74
2017-09-27T21:01:53.516Z,102188.47
2017-09-27T21:04:21.118Z,102191.19
2017-09-27T21:06:48.754Z,102186.03
2017-09-27T21:09:16.695Z,102191.10
2017-09-27T21:11:44.277Z,102186.64
2017-09-27T21:14:12.005Z,102182.84
2017-09-27T21:16:39.681Z,102183.44
2017-09-27T21:19:07.331Z,102184.28
2017-09-27T21:21:34.926Z,102185.80
2017-09-27T21:24:03.217Z,102180.59
2017-09-27T21:26:32.098Z,102179.23
2017-09-27T21:28:59.728Z,102182.62
2017-09-27T21:31:27.377Z,102180.61
2017-09-27T21:33:55.011Z,102180.78
2017-09-27T21:36:22.622Z,102172.87
2017-09-27T21:38:50.244Z,102180.59
2017-09-27T21:41:18.157Z,102172.17
2017-09-27T21:43:46.336Z,102174.01
2017-09-27T21:46:14.201Z,102169.76
2017-09-27T21:48:41.866Z,102172.16
2017-09-27T21:51:09.483Z,102170.66
2017-09-27T21:53:37.081Z,102161.64
2017-09-27T21:56:04.738Z,102169.98
2017-09-27T21:58:32.485Z,102168.73
2017-09-27T22:01:00.070Z,102160.31
2017-09-27T22:03:27.706Z,102161.16
2017-09-27T22:05:55.303Z,102167.89
2017-09-27T22:08:22.946Z,102167.71
2017-09-27T22:10:50.532Z,102168.91
2017-09-27T22:13:18.139Z,102165.61
2017-09-27T22:15:45.774Z,102166.59
2017-09-27T22:18:13.356Z,102173.10
2017-09-27T22:20:41.004Z,102172.02
2017-09-27T22:23:08.602Z,102168.36
2017-09-27T22:25:36.192Z,102169.88
2017-09-27T22:28:22.105Z,102166.00
2017-09-27T22:30:50.891Z,102173.59
2017-09-27T22:33:18.522Z,102167.26
2017-09-27T22:35:46.166Z,102168.80
2017-09-27T22:38:13.770Z,102169.88
2017-09-27T22:40:41.388Z,102173.17
2017-09-27T22:43:09.287Z,102181.16
2017-09-27T22:45:37.268Z,102177.72
2017-09-27T22:48:04.880Z,102171.14
2017-09-27T22:50:32.476Z,102172.89
2017-09-27T22:53:00.105Z,102171.91
2017-09-27T22:55:27.701Z,102164.21
2017-09-27T22:57:55.676Z,102162.88
2017-09-27T23:00:23.289Z,102163.04
2017-09-27T23:02:50.894Z,102165.64
2017-09-27T23:05:18.509Z,102166.66
2017-09-27T23:07:46.178Z,102161.98
2017-09-27T23:10:14.657Z,102171.41
2017-09-27T23:12:42.248Z,102174.98
2017-09-27T23:15:09.875Z,102175.02
2017-09-27T23:17:37.750Z,102174.94
2017-09-27T23:20:05.454Z,102178.31
2017-09-27T23:22:36.957Z,102187.13
2017-09-27T23:25:04.895Z,102193.52
2017-09-27T23:27:32.555Z,102179.55
2017-09-27T23:30:00.432Z,102178.63
2017-09-27T23:32:28.033Z,102176.52
2017-09-27T23:34:55.675Z,102174.88
2017-09-27T23:37:23.261Z,102176.95
2017-09-27T23:39:50.893Z,102171.91
2017-09-27T23:42:18.520Z,102174.09
2017-09-27T23:44:46.403Z,102175.51
2017-09-27T23:47:14.034Z,102174.80
2017-09-27T23:49:41.656Z,102174.45
2017-09-27T23:52:09.244Z,102176.91
2017-09-27T23:54:36.866Z,102180.19
2017-09-27T23:57:04.444Z,102176.52
2017-09-27T23:59:32.093Z,102176.23
